Time;durP1;ratioP1;P1;durP2;ratioP2;P2;SDS_P1;SDS_P2;PMS_P1;PMS_P2;Temp;Humidity;BMP_temperature;BMP_pressure;BME280_temperature;BME280_humidity;BME280_pressure;Samples;Min_cycle;Max_cycle;Signal;HPM_P1;HPM_P2
2023/01/21 00:00:42;;;;;;;16.23;8.85;;;0.50;1.00;;;;;;5021526;28;20291;-82
2023/01/21 00:03:11;;;;;;;15.93;9.63;;;-0.20;1.00;;;;;;5031013;28;20209;-83
2023/01/21 00:05:38;;;;;;;16.70;8.85;;;0.00;99.90;;;;;;5029871;28;20234;-83
2023/01/21 00:08:05;;;;;;;16.80;10.52;;;;;;;;;;5031094;28;20289;-83
2023/01/21 00:10:32;;;;;;;19.77;9.20;;;;;;;;;;5029875;28;20268;-82
2023/01/21 00:12:59;;;;;;;16.10;8.80;;;;;;;;;;5022519;28;20232;-83
2023/01/21 00:15:27;;;;;;;21.40;9.65;;;;;;;;;;5022086;28;20226;-83
2023/01/21 00:17:54;;;;;;;21.67;10.75;;;;;;;;;;5023734;28;20215;-83
2023/01/21 00:20:22;;;;;;;15.85;5.20;;;-0.10;1.00;;;;;;5039615;28;20215;-81
2023/01/21 00:22:49;;;;;;;12.40;7.75;;;;;;;;;;5038934;28;20224;-82
2023/01/21 00:25:16;;;;;;;13.35;8.38;;;-0.10;99.90;;;;;;5027034;28;20296;-82
2023/01/21 00:27:43;;;;;;;27.02;8.93;;;-0.40;1.00;;;;;;5020717;28;20292;-82
2023/01/21 00:30:11;;;;;;;19.45;9.18;;;-0.40;1.00;;;;;;5019348;28;20224;-83
2023/01/21 00:32:38;;;;;;;24.00;9.27;;;-0.30;1.00;;;;;;5020165;28;20577;-82
2023/01/21 00:35:06;;;;;;;16.65;9.60;;;-0.20;1.00;;;;;;5025277;28;20564;-84
2023/01/21 00:37:34;;;;;;;22.13;9.50;;;;;;;;;;5021297;28;20232;-83
2023/01/21 00:40:01;;;;;;;13.88;8.27;;;-0.50;99.90;;;;;;5019450;28;20208;-84
2023/01/21 00:42:28;;;;;;;10.25;7.93;;;;;;;;;;5020174;28;20254;-84
2023/01/21 00:44:56;;;;;;;21.23;9.82;;;;;;;;;;5024345;28;20215;-83
2023/01/21 00:47:24;;;;;;;20.00;8.98;;;-0.20;12.00;;;;;;5026962;28;20220;-83
2023/01/21 00:49:52;;;;;;;15.10;7.03;;;;;;;;;;5025206;28;20251;-83
2023/01/21 00:52:18;;;;;;;15.32;7.88;;;-0.40;44.60;;;;;;5022146;28;20218;-83
2023/01/21 00:54:46;;;;;;;14.98;9.70;;;-0.10;99.90;;;;;;5021204;28;20291;-83
2023/01/21 00:57:13;;;;;;;21.73;8.80;;;-0.30;99.90;;;;;;5020185;28;20316;-82
2023/01/21 00:59:40;;;;;;;15.45;7.95;;;-0.10;99.90;;;;;;5020012;28;20255;-83
2023/01/21 01:02:07;;;;;;;13.18;8.05;;;-0.30;99.90;;;;;;5019625;28;20240;-83
2023/01/21 01:04:34;;;;;;;17.73;8.77;;;0.20;77.20;;;;;;5019429;28;20208;-84
2023/01/21 01:07:01;;;;;;;16.33;7.65;;;;;;;;;;5019588;28;20263;-83
2023/01/21 01:09:28;;;;;;;15.57;8.20;;;-0.50;99.90;;;;;;5019457;28;20215;-84
2023/01/21 01:11:56;;;;;;;13.27;9.52;;;-0.30;99.90;;;;;;5025662;28;20214;-83
2023/01/21 01:14:24;;;;;;;13.70;8.68;;;;;;;;;;5026663;28;20209;-84
2023/01/21 01:16:51;;;;;;;18.33;10.05;;;;;;;;;;5023904;28;20235;-83
2023/01/21 01:19:18;;;;;;;14.70;7.35;;;0.20;99.90;;;;;;5021112;28;20207;-83
2023/01/21 01:21:45;;;;;;;15.75;7.32;;;-0.20;99.90;;;;;;5021369;28;20215;-83
2023/01/21 01:24:12;;;;;;;16.00;7.32;;;0.00;99.90;;;;;;5026684;28;20277;-83
2023/01/21 01:26:39;;;;;;;15.13;8.00;;;0.20;99.90;;;;;;5019536;28;20247;-83
2023/01/21 01:29:11;;;;;;;18.20;8.10;;;0.10;72.80;;;;;;5018747;28;20204;-83
2023/01/21 01:31:38;;;;;;;15.98;9.70;;;;;;;;;;5019835;28;20272;-83
2023/01/21 01:34:05;;;;;;;16.85;9.50;;;;;;;;;;5018458;28;20262;-83
2023/01/21 01:36:33;;;;;;;18.10;8.65;;;;;;;;;;5018765;28;20539;-82
2023/01/21 01:39:00;;;;;;;21.08;9.75;;;-0.20;77.20;;;;;;5018937;28;20339;-83
2023/01/21 01:41:28;;;;;;;19.30;9.32;;;0.00;1.00;;;;;;5018719;28;20205;-82
2023/01/21 01:43:59;;;;;;;24.00;9.88;;;0.00;1.00;;;;;;5019248;28;20244;-82
2023/01/21 01:46:29;;;;;;;21.55;9.75;;;0.00;1.00;;;;;;5030640;28;20667;-82
2023/01/21 01:49:03;;;;;;;30.08;10.68;;;-0.90;1.00;;;;;;5032945;28;20252;-82
2023/01/21 01:51:39;;;;;;;27.30;11.20;;;0.10;1.00;;;;;;5035639;28;20215;-82
2023/01/21 01:54:06;;;;;;;22.40;11.02;;;;;;;;;;5035455;28;20193;-82
2023/01/21 01:56:37;;;;;;;16.30;8.02;;;0.10;1.00;;;;;;5036014;28;20238;-82
2023/01/21 01:59:04;;;;;;;16.52;8.60;;;;;;;;;;5033746;28;20272;-83
2023/01/21 02:01:32;;;;;;;18.45;8.85;;;0.10;99.90;;;;;;5030165;28;20272;-83
2023/01/21 02:04:01;;;;;;;19.77;8.88;;;0.30;1.00;;;;;;5023032;28;20272;-82
2023/01/21 02:06:28;;;;;;;18.85;9.30;;;;;;;;;;5020002;28;20243;-82
2023/01/21 02:08:56;;;;;;;16.20;9.00;;;2.60;99.90;;;;;;5020057;28;20316;-83
2023/01/21 02:11:23;;;;;;;18.98;9.60;;;0.30;1.00;;;;;;5030873;28;20248;-82
2023/01/21 02:13:53;;;;;;;21.13;11.48;;;0.20;1.00;;;;;;5038152;28;20185;-82
2023/01/21 02:17:06;;;;;;;17.70;9.73;;;0.30;99.90;;;;;;5035430;28;20216;-82
2023/01/21 02:20:16;;;;;;;25.48;10.52;;;0.30;1.00;;;;;;5019073;28;20189;-83
2023/01/21 02:22:50;;;;;;;22.77;9.30;;;0.30;99.90;;;;;;5001371;28;20200;-83
2023/01/21 02:25:59;;;;;;;21.55;10.50;;;0.30;99.90;;;;;;5020185;28;20199;-82
2023/01/21 02:29:06;;;;;;;23.17;10.65;;;0.30;99.90;;;;;;5018296;28;20320;-83
2023/01/21 02:31:47;;;;;;;24.52;12.10;;;0.30;1.00;;;;;;5018787;28;20253;-83
2023/01/21 02:34:23;;;;;;;28.35;10.98;;;0.50;1.00;;;;;;5018697;28;20256;-83
2023/01/21 02:37:09;;;;;;;20.63;10.25;;;0.50;1.00;;;;;;5017551;28;20189;-83
2023/01/21 02:39:48;;;;;;;24.38;11.13;;;0.10;1.00;;;;;;5018615;28;20189;-83
2023/01/21 02:42:24;;;;;;;21.60;9.98;;;0.30;99.90;;;;;;5017741;28;20195;-83
2023/01/21 02:44:58;;;;;;;23.75;11.43;;;0.30;99.90;;;;;;5017627;28;20188;-83
2023/01/21 02:47:29;;;;;;;21.95;10.77;;;0.40;99.90;;;;;;5017502;28;20260;-82
2023/01/21 02:50:02;;;;;;;23.95;11.43;;;0.40;1.00;;;;;;5018687;28;20276;-83
2023/01/21 02:52:29;;;;;;;21.95;10.38;;;;;;;;;;5018263;28;20209;-83
2023/01/21 02:54:57;;;;;;;18.33;10.52;;;0.50;99.90;;;;;;5021191;28;20270;-83
2023/01/21 02:57:34;;;;;;;22.27;9.77;;;0.50;99.90;;;;;;5021153;28;20224;-83
2023/01/21 03:00:04;;;;;;;19.60;10.57;;;0.70;99.90;;;;;;5020694;28;20197;-82
2023/01/21 03:02:53;;;;;;;23.73;10.18;;;0.50;1.00;;;;;;5023552;28;20227;-82
2023/01/21 03:05:29;;;;;;;18.25;9.48;;;0.80;99.90;;;;;;5038205;28;20252;-81
2023/01/21 03:08:02;;;;;;;23.38;9.10;;;0.60;99.90;;;;;;5041300;28;20244;-80
2023/01/21 03:10:34;;;;;;;20.33;9.20;;;0.70;99.90;;;;;;5041237;28;20168;-81
2023/01/21 03:13:05;;;;;;;27.23;10.65;;;0.30;99.90;;;;;;5041070;28;20169;-82
2023/01/21 03:18:26;;;;;;;19.17;10.80;;;0.50;77.00;;;;;;5008655;28;20224;-82
2023/01/21 03:20:58;;;;;;;18.15;9.43;;;0.30;99.90;;;;;;5030398;28;20189;-83
2023/01/21 03:23:30;;;;;;;14.25;9.45;;;0.50;59.10;;;;;;5030059;28;20216;-83
2023/01/21 03:25:58;;;;;;;21.13;9.88;;;;;;;;;;5030344;28;20221;-83
2023/01/21 03:28:30;;;;;;;20.08;9.88;;;0.60;1.00;;;;;;5028557;28;20295;-83
2023/01/21 03:31:03;;;;;;;19.75;10.25;;;0.70;70.50;;;;;;5028234;28;20200;-83
2023/01/21 03:33:35;;;;;;;15.23;9.70;;;0.50;29.80;;;;;;5025207;28;20184;-84
2023/01/21 03:36:10;;;;;;;18.73;10.10;;;0.60;92.00;;;;;;5023061;28;20193;-83
2023/01/21 03:38:42;;;;;;;19.83;10.55;;;0.60;1.00;;;;;;5026141;28;20239;-83
2023/01/21 03:41:14;;;;;;;21.05;11.40;;;0.40;99.90;;;;;;5021279;28;20189;-83
2023/01/21 03:43:41;;;;;;;28.05;10.95;;;0.80;99.90;;;;;;5021251;28;20195;-83
2023/01/21 03:46:13;;;;;;;20.02;9.55;;;0.70;99.90;;;;;;5020425;28;20299;-83
2023/01/21 03:48:47;;;;;;;18.90;9.55;;;0.10;86.20;;;;;;5019976;28;20229;-83
2023/01/21 03:51:19;;;;;;;24.02;9.75;;;0.70;99.90;;;;;;5023931;28;20221;-83
2023/01/21 03:53:51;;;;;;;23.40;12.80;;;0.80;1.00;;;;;;5022543;28;20447;-82
2023/01/21 03:56:18;;;;;;;19.42;11.25;;;0.60;1.00;;;;;;5020531;28;20441;-82
2023/01/21 03:58:45;;;;;;;19.50;9.68;;;0.80;1.00;;;;;;5020781;28;20248;-82
2023/01/21 04:01:12;;;;;;;18.58;11.23;;;-0.70;99.90;;;;;;5032165;28;20284;-81
2023/01/21 04:03:39;;;;;;;15.07;9.02;;;;;;;;;;5039488;28;20172;-81
2023/01/21 04:06:06;;;;;;;28.20;9.88;;;0.00;1.00;;;;;;5036743;28;20209;-83
2023/01/21 04:08:35;;;;;;;19.02;9.75;;;0.80;1.00;;;;;;5023936;28;20471;-83
2023/01/21 04:11:01;;;;;;;20.00;11.75;;;0.50;1.00;;;;;;5021403;28;20235;-82
2023/01/21 04:13:28;;;;;;;18.77;9.73;;;;;;;;;;5023658;28;20205;-82
2023/01/21 04:15:56;;;;;;;17.38;9.55;;;;;;;;;;5023068;28;20208;-83
2023/01/21 04:18:23;;;;;;;13.23;7.80;;;0.60;99.90;;;;;;5021714;28;20319;-82
2023/01/21 04:20:50;;;;;;;15.68;8.32;;;1.20;1.00;;;;;;5023193;28;20690;-81
2023/01/21 04:23:17;;;;;;;15.95;9.00;;;0.80;1.00;;;;;;5023088;28;20201;-82
2023/01/21 04:25:47;;;;;;;18.08;7.82;;;1.00;1.00;;;;;;5021192;28;20200;-83
2023/01/21 04:28:14;;;;;;;15.63;9.75;;;;;;;;;;5019718;28;20227;-82
2023/01/21 04:30:41;;;;;;;13.32;7.75;;;0.60;1.00;;;;;;5020516;28;20200;-82
2023/01/21 04:33:08;;;;;;;16.73;8.00;;;0.70;99.90;;;;;;5020870;28;20204;-82
2023/01/21 04:35:35;;;;;;;14.00;7.45;;;0.70;1.00;;;;;;5019921;28;20207;-83
2023/01/21 04:38:02;;;;;;;12.65;7.43;;;0.50;98.30;;;;;;5019393;28;20311;-82
2023/01/21 04:40:29;;;;;;;14.32;8.65;;;0.60;99.90;;;;;;5019946;28;20215;-82
2023/01/21 04:42:57;;;;;;;14.75;7.45;;;0.80;99.90;;;;;;5019346;28;20204;-82
2023/01/21 04:45:25;;;;;;;14.13;7.50;;;;;;;;;;5019139;28;20204;-82
2023/01/21 04:47:51;;;;;;;15.45;7.43;;;0.50;99.90;;;;;;5018729;28;20221;-83
2023/01/21 04:50:19;;;;;;;9.45;5.30;;;;;;;;;;5018657;28;20240;-83
2023/01/21 04:52:45;;;;;;;14.65;7.40;;;0.40;99.90;;;;;;5021144;28;20232;-83
2023/01/21 04:55:12;;;;;;;18.83;9.48;;;0.40;99.90;;;;;;5017606;28;20323;-82
2023/01/21 04:57:39;;;;;;;10.30;6.72;;;;;;;;;;5017354;28;20231;-82
2023/01/21 05:00:09;;;;;;;12.02;7.18;;;0.60;99.90;;;;;;5016944;28;20319;-83
2023/01/21 05:02:36;;;;;;;10.73;6.88;;;;;;;;;;5028363;28;20679;-83
2023/01/21 05:05:04;;;;;;;12.38;7.47;;;0.60;99.90;;;;;;5026100;28;20244;-83
2023/01/21 05:07:30;;;;;;;9.80;6.20;;;0.90;99.90;;;;;;5019285;28;20307;-83
2023/01/21 05:09:57;;;;;;;8.85;5.95;;;0.70;99.90;;;;;;5029790;28;20287;-83
2023/01/21 05:12:24;;;;;;;13.38;7.05;;;0.40;99.90;;;;;;5034977;28;20291;-82
2023/01/21 05:14:53;;;;;;;14.77;6.38;;;0.70;99.90;;;;;;5018855;28;20291;-82
2023/01/21 05:17:22;;;;;;;14.10;6.85;;;;;;;;;;5017506;28;20723;-83
2023/01/21 05:19:49;;;;;;;11.95;6.32;;;0.60;99.90;;;;;;5018429;28;20316;-84
2023/01/21 05:22:16;;;;;;;8.80;5.75;;;;;;;;;;5028545;28;20213;-83
2023/01/21 05:24:43;;;;;;;8.18;5.95;;;;;;;;;;5026555;28;20273;-83
2023/01/21 05:29:39;;;;;;;11.20;7.50;;;0.70;1.00;;;;;;4984267;28;20635;-85
2023/01/21 05:32:06;;;;;;;8.00;5.90;;;0.60;99.90;;;;;;4995313;28;20296;-83
2023/01/21 05:34:34;;;;;;;14.60;8.40;;;0.70;99.90;;;;;;4990435;28;20214;-84
2023/01/21 05:37:01;;;;;;;15.95;7.65;;;0.70;1.00;;;;;;4984284;28;20206;-84
2023/01/21 05:39:28;;;;;;;11.73;7.25;;;;;;;;;;4965398;29;20228;-84
2023/01/21 05:41:55;;;;;;;10.65;7.18;;;;;;;;;;4968559;29;20207;-83
2023/01/21 05:44:22;;;;;;;10.70;6.95;;;0.80;99.90;;;;;;4973581;29;20206;-86
2023/01/21 05:46:49;;;;;;;9.50;6.63;;;;;;;;;;4964257;29;20210;-85
2023/01/21 05:49:17;;;;;;;11.98;6.65;;;;;;;;;;4963446;29;20652;-86
2023/01/21 05:51:45;;;;;;;12.95;7.53;;;;;;;;;;4965548;29;20265;-85
2023/01/21 05:54:12;;;;;;;10.75;6.95;;;1.30;99.90;;;;;;4970840;28;20187;-84
2023/01/21 05:56:39;;;;;;;10.13;6.18;;;0.60;99.90;;;;;;4979728;28;20250;-82
2023/01/21 05:59:06;;;;;;;10.15;6.65;;;;;;;;;;4979616;28;20237;-82
2023/01/21 06:01:33;;;;;;;11.00;7.53;;;0.90;99.90;;;;;;4979375;28;20223;-82
2023/01/21 06:04:00;;;;;;;9.13;6.97;;;1.00;99.90;;;;;;4977420;28;20269;-84
2023/01/21 06:06:26;;;;;;;14.68;7.13;;;0.90;99.90;;;;;;4979099;28;20214;-84
2023/01/21 06:08:55;;;;;;;13.10;7.65;;;-0.60;99.90;;;;;;4978854;29;20257;-82
2023/01/21 06:11:21;;;;;;;13.90;7.03;;;1.00;1.00;;;;;;4979165;28;20210;-83
2023/01/21 06:13:48;;;;;;;13.35;7.20;;;1.00;1.00;;;;;;4979249;28;20187;-82
2023/01/21 06:16:15;;;;;;;10.80;5.78;;;0.80;1.00;;;;;;4978955;28;20206;-84
2023/01/21 06:18:42;;;;;;;13.18;7.65;;;1.10;1.00;;;;;;4979389;28;20229;-82
2023/01/21 06:21:09;;;;;;;11.90;7.25;;;;;;;;;;4978114;28;20214;-84
2023/01/21 06:23:36;;;;;;;15.10;8.48;;;;;;;;;;4966908;29;20213;-84
2023/01/21 06:26:04;;;;;;;14.82;8.40;;;0.90;99.90;;;;;;4966614;29;20570;-84
2023/01/21 06:28:31;;;;;;;15.95;8.85;;;1.00;1.00;;;;;;4966905;29;20238;-84
2023/01/21 06:30:58;;;;;;;11.98;7.25;;;;;;;;;;4968332;29;20226;-84
2023/01/21 06:33:25;;;;;;;14.95;9.07;;;;;;;;;;4968369;29;20210;-84
2023/01/21 06:35:53;;;;;;;18.27;10.02;;;;;;;;;;4968647;29;20293;-84
2023/01/21 06:38:19;;;;;;;13.63;8.35;;;1.20;1.00;;;;;;4968788;29;20705;-84
2023/01/21 06:40:47;;;;;;;16.00;9.55;;;;;;;;;;4968357;29;20282;-84
2023/01/21 06:43:15;;;;;;;19.05;10.20;;;0.90;99.90;;;;;;4967531;29;20636;-85
2023/01/21 06:45:41;;;;;;;16.40;9.73;;;0.60;1.00;;;;;;4966789;29;20206;-85
2023/01/21 06:48:08;;;;;;;15.25;9.95;;;1.10;1.00;;;;;;4966585;29;20293;-84
2023/01/21 06:50:35;;;;;;;15.65;11.40;;;1.20;1.00;;;;;;4966960;29;20202;-85
2023/01/21 06:53:02;;;;;;;16.95;10.45;;;;;;;;;;4967653;29;20295;-85
2023/01/21 06:55:29;;;;;;;17.65;9.77;;;0.70;1.00;;;;;;4966488;29;20689;-85
2023/01/21 06:57:56;;;;;;;18.45;11.23;;;;;;;;;;4969602;29;20286;-84
2023/01/21 07:00:24;;;;;;;21.38;10.88;;;1.10;1.00;;;;;;4967051;29;20227;-85
2023/01/21 07:02:56;;;;;;;18.02;12.27;;;1.10;1.00;;;;;;4966501;29;20717;-85
2023/01/21 07:05:23;;;;;;;16.85;10.50;;;;;;;;;;4967473;29;20191;-84
2023/01/21 07:07:49;;;;;;;20.33;11.38;;;0.70;1.00;;;;;;4973885;29;20230;-85
2023/01/21 07:10:17;;;;;;;18.50;10.40;;;0.90;1.00;;;;;;4971776;29;20262;-84
2023/01/21 07:12:44;;;;;;;20.15;11.40;;;;;;;;;;4967768;29;20214;-84
2023/01/21 07:15:11;;;;;;;21.92;11.85;;;0.10;99.90;;;;;;4970181;28;20211;-82
2023/01/21 07:17:40;;;;;;;23.67;13.20;;;;;;;;;;4981416;29;20238;-83
2023/01/21 07:20:07;;;;;;;18.60;11.57;;;0.70;99.90;;;;;;4980997;28;20238;-84
2023/01/21 07:22:35;;;;;;;18.63;11.82;;;0.80;1.00;;;;;;4976480;29;20241;-85
2023/01/21 07:25:02;;;;;;;17.23;10.57;;;0.70;1.00;;;;;;4969143;29;20207;-85
2023/01/21 07:27:28;;;;;;;21.35;11.82;;;1.30;99.90;;;;;;4967415;29;20226;-84
2023/01/21 07:29:55;;;;;;;17.30;11.75;;;;;;;;;;4966813;29;20202;-85
2023/01/21 07:32:23;;;;;;;22.10;12.10;;;;;;;;;;4968588;29;20226;-85
2023/01/21 07:34:51;;;;;;;20.30;12.18;;;1.10;91.20;;;;;;4968338;29;20210;-85
2023/01/21 07:37:18;;;;;;;20.50;10.77;;;1.20;99.90;;;;;;4974563;29;20348;-84
2023/01/21 07:39:45;;;;;;;21.08;13.55;;;1.10;1.00;;;;;;4973358;28;20268;-85
2023/01/21 07:42:12;;;;;;;20.80;13.90;;;1.20;99.90;;;;;;4967994;29;20234;-84
2023/01/21 07:44:39;;;;;;;18.63;12.02;;;;;;;;;;4967413;29;20203;-87
2023/01/21 07:47:05;;;;;;;17.50;11.00;;;1.10;1.00;;;;;;4966424;29;20631;-83
2023/01/21 07:49:33;;;;;;;24.73;14.27;;;;;;;;;;4966307;29;20267;-85
2023/01/21 07:52:01;;;;;;;21.65;11.70;;;1.10;1.00;;;;;;4965711;29;20216;-85
2023/01/21 07:54:28;;;;;;;22.42;13.27;;;0.70;99.90;;;;;;4965872;29;20208;-84
2023/01/21 07:56:55;;;;;;;19.75;12.88;;;;;;;;;;4964883;29;20305;-84
2023/01/21 07:59:22;;;;;;;21.58;13.57;;;;;;;;;;4965382;29;20262;-84
2023/01/21 08:01:50;;;;;;;19.13;12.23;;;;;;;;;;4965687;29;20238;-85
2023/01/21 08:04:17;;;;;;;18.70;12.10;;;;;;;;;;4965685;29;20234;-85
2023/01/21 08:06:44;;;;;;;21.63;13.77;;;;;;;;;;4966000;29;20206;-83
2023/01/21 08:09:12;;;;;;;22.42;12.90;;;1.10;1.00;;;;;;4974958;29;20242;-83
2023/01/21 08:11:39;;;;;;;22.58;12.45;;;;;;;;;;4976217;29;20241;-83
2023/01/21 08:14:06;;;;;;;21.52;13.55;;;;;;;;;;4975665;29;20238;-83
2023/01/21 08:16:33;;;;;;;21.55;12.65;;;;;;;;;;4974773;29;20206;-83
2023/01/21 08:19:01;;;;;;;22.15;11.93;;;;;;;;;;4976604;28;20286;-85
2023/01/21 08:21:28;;;;;;;22.88;11.95;;;1.20;99.90;;;;;;4966231;29;20302;-85
2023/01/21 08:23:55;;;;;;;22.15;12.90;;;;;;;;;;4974999;29;20217;-83
2023/01/21 08:26:23;;;;;;;20.02;13.07;;;;;;;;;;4980361;28;20226;-84
2023/01/21 08:28:51;;;;;;;19.17;10.93;;;;;;;;;;4978903;28;20321;-84
2023/01/21 08:31:18;;;;;;;22.08;12.30;;;;;;;;;;4979794;28;20251;-83
2023/01/21 08:33:45;;;;;;;22.95;13.60;;;;;;;;;;4979507;28;20226;-84
2023/01/21 08:36:12;;;;;;;24.25;12.13;;;;;;;;;;4979720;28;20276;-84
2023/01/21 08:38:39;;;;;;;26.45;12.95;;;0.20;1.00;;;;;;4972148;29;20230;-82
2023/01/21 08:41:07;;;;;;;21.00;11.70;;;;;;;;;;4976062;29;20215;-81
2023/01/21 08:43:35;;;;;;;17.60;12.02;;;1.40;99.90;;;;;;4976410;29;20274;-83
2023/01/21 08:46:02;;;;;;;20.15;13.25;;;1.10;1.00;;;;;;4976669;29;20219;-82
2023/01/21 08:48:29;;;;;;;20.77;11.35;;;;;;;;;;4977441;29;20246;-83
2023/01/21 08:50:58;;;;;;;20.13;11.98;;;1.30;99.90;;;;;;4976252;28;20230;-81
2023/01/21 08:53:25;;;;;;;22.38;11.90;;;;;;;;;;4977225;29;20242;-83
2023/01/21 08:55:52;;;;;;;18.13;10.52;;;1.10;99.90;;;;;;4971629;29;20293;-84
2023/01/21 08:58:19;;;;;;;14.75;9.40;;;;;;;;;;4971915;29;20250;-84
2023/01/21 09:00:48;;;;;;;23.60;11.07;;;1.00;99.90;;;;;;4973254;29;20286;-83
2023/01/21 09:03:16;;;;;;;17.77;9.55;;;;;;;;;;4971541;29;20633;-83
2023/01/21 09:05:43;;;;;;;20.75;11.57;;;;;;;;;;4967383;29;20293;-85
2023/01/21 09:08:10;;;;;;;18.23;10.23;;;1.40;99.90;;;;;;4972848;29;20233;-83
2023/01/21 09:13:18;;;;;;;19.10;12.00;;;1.60;1.00;;;;;;4971784;29;20187;-85
2023/01/21 09:15:47;;;;;;;17.85;11.52;;;1.70;1.00;;;;;;4979177;28;20197;-82
2023/01/21 09:18:13;;;;;;;15.20;10.98;;;1.50;99.90;;;;;;4976084;28;20222;-83
2023/01/21 09:20:40;;;;;;;19.77;12.65;;;1.70;99.90;;;;;;4966113;29;20293;-84
2023/01/21 09:23:22;;;;;;;17.08;10.65;;;1.40;99.90;;;;;;4969827;29;20206;-82
2023/01/21 09:25:50;;;;;;;16.45;10.93;;;1.50;99.90;;;;;;4969749;29;20302;-85
2023/01/21 09:28:17;;;;;;;18.55;11.82;;;;;;;;;;4966037;29;20270;-84
2023/01/21 09:30:44;;;;;;;14.27;9.88;;;;;;;;;;4969400;29;20210;-82
2023/01/21 09:33:13;;;;;;;12.25;7.50;;;1.60;1.00;;;;;;4971155;29;20270;-82
2023/01/21 09:35:40;;;;;;;18.65;11.02;;;;;;;;;;4966229;29;20206;-85
2023/01/21 09:38:07;;;;;;;21.38;10.65;;;1.60;99.90;;;;;;4965382;29;20309;-84
2023/01/21 09:40:35;;;;;;;16.95;9.85;;;1.70;1.00;;;;;;4965204;29;20226;-84
2023/01/21 09:43:10;;;;;;;19.10;10.00;;;1.70;1.00;;;;;;4963796;29;20408;-83
2023/01/21 09:45:37;;;;;;;21.27;12.35;;;1.80;1.00;;;;;;4962789;29;20205;-83
2023/01/21 09:48:06;;;;;;;16.25;10.80;;;2.00;99.90;;;;;;4962872;29;20250;-84
2023/01/21 09:50:38;;;;;;;17.00;10.10;;;1.80;1.00;;;;;;4962930;29;20277;-83
2023/01/21 09:53:24;;;;;;;17.80;10.38;;;1.80;1.00;;;;;;4964968;29;20198;-86
2023/01/21 09:55:53;;;;;;;19.55;11.20;;;1.80;1.00;;;;;;4964779;29;20225;-85
2023/01/21 09:58:26;;;;;;;18.25;11.60;;;1.90;99.90;;;;;;4964083;29;20254;-83
2023/01/21 10:00:58;;;;;;;15.98;11.65;;;1.90;99.90;;;;;;4963676;28;20250;-83
2023/01/21 10:03:32;;;;;;;18.90;11.30;;;1.90;99.90;;;;;;4970171;29;20629;-85
2023/01/21 10:06:23;;;;;;;19.95;11.25;;;1.90;99.90;;;;;;4970630;29;20195;-85
2023/01/21 10:09:15;;;;;;;21.52;12.05;;;1.90;99.90;;;;;;4970205;29;20226;-85
2023/01/21 10:11:55;;;;;;;22.75;11.05;;;1.60;1.00;;;;;;4971925;29;20197;-82
2023/01/21 10:15:01;;;;;;;18.08;10.40;;;2.00;1.00;;;;;;4972089;29;20273;-82
2023/01/21 10:17:35;;;;;;;20.70;11.55;;;2.00;99.90;;;;;;4978094;29;20318;-82
2023/01/21 10:20:11;;;;;;;20.50;9.73;;;2.10;99.90;;;;;;4978539;29;20300;-84
2023/01/21 10:22:43;;;;;;;23.98;12.98;;;2.00;97.30;;;;;;4978687;29;20253;-82
2023/01/21 10:25:26;;;;;;;17.42;9.80;;;2.10;50.10;;;;;;4978164;29;20219;-83
2023/01/21 10:27:56;;;;;;;17.88;11.52;;;2.10;99.90;;;;;;4979444;29;20258;-82
2023/01/21 10:30:26;;;;;;;17.75;10.10;;;1.90;23.70;;;;;;4979107;29;20193;-84
2023/01/21 10:32:54;;;;;;;17.00;9.70;;;2.10;99.90;;;;;;4974541;29;20385;-84
2023/01/21 10:35:38;;;;;;;17.95;10.63;;;2.10;1.00;;;;;;4973766;29;20230;-84
2023/01/21 10:38:12;;;;;;;20.45;11.20;;;2.20;1.00;;;;;;4970049;29;20708;-85
2023/01/21 10:40:47;;;;;;;18.30;11.20;;;2.20;1.00;;;;;;4968488;29;20292;-85
2023/01/21 10:43:27;;;;;;;21.25;11.45;;;2.20;1.00;;;;;;4968582;29;20262;-85
2023/01/21 10:46:01;;;;;;;17.38;11.07;;;2.20;1.00;;;;;;4969834;29;20282;-85
2023/01/21 10:48:36;;;;;;;19.35;10.25;;;2.30;1.00;;;;;;4971066;29;20250;-85
2023/01/21 10:51:13;;;;;;;17.77;10.43;;;1.30;99.90;;;;;;4968931;29;20319;-84
2023/01/21 10:53:47;;;;;;;20.65;11.27;;;2.30;1.00;;;;;;4969868;29;20201;-85
2023/01/21 10:56:28;;;;;;;24.48;10.48;;;2.40;51.90;;;;;;4970096;29;20191;-85
2023/01/21 10:58:57;;;;;;;12.00;10.30;;;2.50;39.10;;;;;;4968677;29;20226;-85
2023/01/21 11:01:28;;;;;;;17.23;8.65;;;2.60;1.00;;;;;;4969755;29;20246;-83
2023/01/21 11:03:57;;;;;;;17.83;10.35;;;2.60;1.00;;;;;;4968419;29;20195;-84
2023/01/21 11:06:25;;;;;;;20.85;12.68;;;2.50;1.00;;;;;;4968112;29;20206;-85
2023/01/21 11:08:58;;;;;;;25.48;11.98;;;2.60;1.00;;;;;;4968429;29;20235;-83
2023/01/21 11:11:26;;;;;;;13.43;9.95;;;2.50;1.00;;;;;;4967709;29;20191;-84
2023/01/21 11:13:54;;;;;;;19.15;11.30;;;2.60;99.90;;;;;;4976790;28;20190;-84
2023/01/21 11:16:33;;;;;;;16.45;10.45;;;2.60;99.90;;;;;;4980815;28;20187;-83
2023/01/21 11:19:00;;;;;;;16.35;9.63;;;;;;;;;;4981671;28;20270;-82
2023/01/21 11:21:27;;;;;;;32.58;9.80;;;;;;;;;;4980933;28;20230;-85
2023/01/21 11:23:57;;;;;;;12.52;8.93;;;2.50;1.00;;;;;;4979280;29;20210;-84
2023/01/21 11:26:27;;;;;;;18.23;10.23;;;2.70;99.90;;;;;;4977948;29;20253;-85
2023/01/21 11:29:07;;;;;;;14.85;9.88;;;2.60;1.00;;;;;;5016504;22;20279;-85
2023/01/21 11:31:34;;;;;;;14.45;8.35;;;2.80;1.00;;;;;;5033776;28;20263;-84
2023/01/21 11:34:06;;;;;;;14.35;9.32;;;2.80;1.00;;;;;;5035118;28;20209;-84
2023/01/21 11:36:33;;;;;;;9.52;5.45;;;;;;;;;;5030470;28;20216;-84
2023/01/21 11:39:03;;;;;;;16.35;10.48;;;2.60;40.20;;;;;;5032666;28;20256;-84
2023/01/21 11:41:31;;;;;;;13.85;7.75;;;2.90;1.00;;;;;;5029433;28;20212;-86
2023/01/21 11:44:09;;;;;;;16.00;10.13;;;2.90;1.00;;;;;;5034145;28;20231;-85
2023/01/21 11:46:37;;;;;;;19.98;13.45;;;2.90;99.90;;;;;;5039287;28;20185;-84
2023/01/21 11:49:26;;;;;;;16.88;9.23;;;2.60;1.00;;;;;;5031585;28;20259;-84
2023/01/21 11:52:16;;;;;;;15.77;8.75;;;3.00;1.00;;;;;;5027964;28;20252;-85
2023/01/21 11:54:45;;;;;;;10.32;7.85;;;3.00;1.00;;;;;;5024587;28;20196;-85
2023/01/21 11:57:24;;;;;;;17.48;10.40;;;3.00;1.00;;;;;;5029879;28;20577;-84
2023/01/21 11:59:52;;;;;;;14.00;9.88;;;2.70;1.00;;;;;;5030751;28;20227;-84
2023/01/21 12:02:22;;;;;;;12.80;6.85;;;3.10;99.90;;;;;;5031399;28;20235;-84
2023/01/21 12:04:53;;;;;;;11.73;8.88;;;3.10;1.00;;;;;;5029521;28;20195;-85
2023/01/21 12:07:22;;;;;;;11.85;8.10;;;3.20;99.90;;;;;;5029933;28;20208;-84
2023/01/21 12:10:01;;;;;;;20.13;11.23;;;3.10;1.00;;;;;;5038221;28;20213;-81
2023/01/21 12:12:48;;;;;;;15.82;9.80;;;3.10;99.90;;;;;;5040015;28;20219;-82
2023/01/21 12:15:29;;;;;;;14.93;9.68;;;3.20;1.00;;;;;;5037023;28;20248;-83
2023/01/21 12:18:08;;;;;;;12.85;9.27;;;3.00;99.90;;;;;;5032199;28;20287;-84
2023/01/21 12:20:42;;;;;;;12.02;8.90;;;3.40;1.00;;;;;;5032681;28;20212;-84
2023/01/21 12:23:32;;;;;;;14.13;7.95;;;3.40;1.00;;;;;;5031069;28;20195;-84
2023/01/21 12:26:22;;;;;;;15.13;9.38;;;3.50;30.40;;;;;;5028581;28;20264;-84
2023/01/21 12:29:02;;;;;;;12.40;8.05;;;3.60;99.90;;;;;;5030244;28;20216;-84
2023/01/21 12:31:33;;;;;;;10.00;6.90;;;3.60;1.00;;;;;;5032736;28;20227;-85
2023/01/21 12:34:05;;;;;;;7.68;6.53;;;3.80;1.00;;;;;;5034928;28;20176;-83
2023/01/21 12:36:38;;;;;;;14.27;7.30;;;3.70;99.90;;;;;;5039142;28;20213;-84
2023/01/21 12:39:15;;;;;;;9.10;5.60;;;3.90;1.00;;;;;;5039094;28;20269;-83
2023/01/21 12:41:46;;;;;;;10.27;7.03;;;3.70;99.90;;;;;;5027253;28;20641;-86
2023/01/21 12:44:23;;;;;;;10.65;6.65;;;3.70;99.90;;;;;;5021473;28;20252;-84
2023/01/21 12:46:53;;;;;;;9.85;6.50;;;3.70;99.90;;;;;;5021150;28;20204;-84
2023/01/21 12:49:25;;;;;;;9.25;5.90;;;3.50;1.00;;;;;;5025640;28;20228;-85
2023/01/21 12:51:58;;;;;;;6.10;4.53;;;3.40;99.90;;;;;;5026067;28;20185;-84
2023/01/21 12:54:33;;;;;;;5.05;4.65;;;3.70;99.90;;;;;;5024497;28;20199;-85
2023/01/21 12:57:09;;;;;;;6.40;5.18;;;3.40;1.00;;;;;;5027423;28;20192;-85
2023/01/21 12:59:42;;;;;;;2.88;2.67;;;3.70;99.90;;;;;;5023486;28;20287;-85
2023/01/21 13:02:21;;;;;;;5.20;4.10;;;2.60;99.90;;;;;;5022788;28;20308;-84
2023/01/21 13:04:54;;;;;;;5.88;4.82;;;3.90;1.00;;;;;;5022977;28;20192;-86
2023/01/21 13:07:37;;;;;;;4.65;3.80;;;3.80;99.90;;;;;;5027021;28;20256;-85
2023/01/21 13:10:14;;;;;;;4.55;3.65;;;3.70;99.90;;;;;;5030234;28;20651;-86
2023/01/21 13:12:46;;;;;;;5.22;4.63;;;3.80;79.20;;;;;;5027351;28;20191;-85
2023/01/21 13:15:18;;;;;;;4.88;4.38;;;3.80;99.90;;;;;;5024531;28;20275;-85
2023/01/21 13:17:50;;;;;;;6.70;3.80;;;3.80;99.90;;;;;;5021791;28;20272;-82
2023/01/21 13:20:21;;;;;;;3.35;2.40;;;4.30;1.00;;;;;;5023538;28;20252;-84
2023/01/21 13:22:58;;;;;;;6.15;5.35;;;3.90;99.90;;;;;;5025272;28;20296;-84
2023/01/21 13:25:33;;;;;;;2.40;2.25;;;3.80;1.00;;;;;;5022868;28;20311;-84
2023/01/21 13:28:09;;;;;;;6.85;2.92;;;3.90;99.90;;;;;;5024869;28;20298;-86
2023/01/21 13:30:43;;;;;;;3.83;2.20;;;3.90;99.90;;;;;;5026201;28;20252;-85
2023/01/21 13:33:23;;;;;;;5.38;3.28;;;4.00;1.00;;;;;;5029541;28;20217;-85
2023/01/21 13:35:59;;;;;;;4.93;4.25;;;3.90;57.50;;;;;;5031017;28;20215;-85